createdAt,value
2022-12-04T00:01:31.870Z,37.92
2022-12-04T00:04:01.852Z,37.42
2022-12-04T00:06:30.498Z,36.17
2022-12-04T00:08:59.022Z,35.75
2022-12-04T00:11:31.120Z,36.35
2022-12-04T00:14:06.097Z,37.00
2022-12-04T00:16:35.648Z,37.30
2022-12-04T00:19:04.817Z,36.47
2022-12-04T00:21:33.134Z,36.40
2022-12-04T00:24:01.522Z,37.70
2022-12-04T00:26:32.174Z,36.55
2022-12-04T00:29:01.012Z,38.55
2022-12-04T00:31:30.785Z,38.20
2022-12-04T00:34:00.375Z,36.22
2022-12-04T00:36:30.854Z,37.35
2022-12-04T00:39:01.038Z,35.47
2022-12-04T00:41:33.757Z,37.67
2022-12-04T00:44:03.764Z,36.63
2022-12-04T00:46:32.583Z,37.63
2022-12-04T00:49:03.187Z,39.35
2022-12-04T00:51:32.106Z,39.13
2022-12-04T00:54:00.938Z,38.95
2022-12-04T00:56:31.521Z,35.50
2022-12-04T01:01:30.468Z,34.90
2022-12-04T01:03:59.388Z,36.08
2022-12-04T01:06:29.231Z,33.78
2022-12-04T01:08:58.548Z,35.65
2022-12-04T01:11:27.962Z,34.95
2022-12-04T01:13:58.389Z,37.35
2022-12-04T01:16:28.510Z,38.00
2022-12-04T01:18:57.205Z,39.30
2022-12-04T01:21:25.422Z,38.38
2022-12-04T01:23:53.997Z,36.50
2022-12-04T01:26:22.426Z,38.97
2022-12-04T01:28:51.114Z,36.95
2022-12-04T01:31:22.224Z,36.90
2022-12-04T01:33:51.739Z,39.67
2022-12-04T01:36:21.785Z,37.67
2022-12-04T01:38:51.200Z,41.47
2022-12-04T01:41:22.367Z,42.90
2022-12-04T01:44:12.337Z,41.95
2022-12-04T01:46:42.456Z,41.00
2022-12-04T01:49:13.742Z,44.22
2022-12-04T01:51:44.020Z,46.75
2022-12-04T01:54:16.837Z,42.13
2022-12-04T01:56:47.518Z,44.90
2022-12-04T01:59:18.487Z,45.13
2022-12-04T02:01:54.344Z,45.78
2022-12-04T02:04:23.116Z,41.35
2022-12-04T02:06:51.225Z,43.30
2022-12-04T02:09:26.214Z,42.10
2022-12-04T02:12:00.646Z,43.13
2022-12-04T02:14:34.545Z,42.88
2022-12-04T02:17:13.044Z,41.88
2022-12-04T02:19:53.752Z,39.72
2022-12-04T02:22:32.562Z,35.95
2022-12-04T02:25:06.635Z,39.83
2022-12-04T02:28:11.077Z,40.28
2022-12-04T02:30:41.838Z,39.95
2022-12-04T02:33:19.503Z,41.97
2022-12-04T02:35:50.047Z,42.08
2022-12-04T02:38:24.717Z,42.23
2022-12-04T02:40:57.830Z,42.88
2022-12-04T02:43:28.704Z,44.33
2022-12-04T02:48:27.829Z,42.35
2022-12-04T02:50:58.062Z,44.60
2022-12-04T02:53:28.580Z,42.65
2022-12-04T02:55:59.471Z,41.50
2022-12-04T02:58:32.344Z,41.53
2022-12-04T03:01:02.659Z,39.35
2022-12-04T03:03:32.351Z,40.05
2022-12-04T03:06:02.906Z,37.45
2022-12-04T03:08:36.118Z,37.28
2022-12-04T03:11:05.058Z,35.85
2022-12-04T03:13:40.120Z,37.65
2022-12-04T03:16:11.559Z,36.33
2022-12-04T03:18:42.017Z,35.47
2022-12-04T03:21:13.350Z,36.30
2022-12-04T03:23:45.828Z,36.67
2022-12-04T03:26:22.546Z,33.92
2022-12-04T03:28:58.295Z,32.15
2022-12-04T03:31:33.222Z,32.70
2022-12-04T03:34:04.466Z,33.70
2022-12-04T03:36:37.914Z,32.70
2022-12-04T03:39:10.307Z,32.22
2022-12-04T03:41:50.088Z,35.75
2022-12-04T03:44:24.565Z,34.88
2022-12-04T03:46:56.458Z,35.83
2022-12-04T03:49:29.206Z,33.60
2022-12-04T03:52:01.475Z,36.47
2022-12-04T03:54:32.258Z,36.90
2022-12-04T03:57:03.179Z,39.08
2022-12-04T03:59:38.973Z,47.47
2022-12-04T04:02:10.040Z,41.55
2022-12-04T04:04:41.305Z,41.92
2022-12-04T04:09:42.785Z,35.35
2022-12-04T04:12:16.145Z,35.72
2022-12-04T04:15:08.125Z,39.00
2022-12-04T04:17:58.610Z,42.17
2022-12-04T04:20:51.970Z,38.83
2022-12-04T04:23:38.960Z,39.03
2022-12-04T04:26:08.164Z,39.28
2022-12-04T04:28:38.402Z,39.40
2022-12-04T04:31:13.049Z,44.13
2022-12-04T04:33:49.735Z,40.75
2022-12-04T04:36:25.368Z,37.95
2022-12-04T04:39:01.203Z,39.65
2022-12-04T04:41:35.411Z,35.05
2022-12-04T04:44:10.167Z,35.88
2022-12-04T04:46:42.015Z,33.40
2022-12-04T04:49:12.281Z,35.38
2022-12-04T04:51:40.537Z,33.78
2022-12-04T04:54:11.150Z,33.67
2022-12-04T04:56:42.047Z,34.97
2022-12-04T04:59:10.644Z,33.53
2022-12-04T05:01:40.857Z,34.72
2022-12-04T05:04:09.673Z,35.25
2022-12-04T05:06:37.902Z,34.60
2022-12-04T05:09:06.677Z,36.13
2022-12-04T05:11:34.923Z,34.22
2022-12-04T05:14:03.460Z,33.50
2022-12-04T05:16:32.746Z,32.05
2022-12-04T05:19:23.344Z,33.88
2022-12-04T05:21:51.569Z,31.98
2022-12-04T05:24:20.002Z,34.78
2022-12-04T05:26:48.063Z,32.70
2022-12-04T05:29:16.501Z,32.28
2022-12-04T05:31:45.866Z,33.55
2022-12-04T05:34:17.012Z,34.77
2022-12-04T05:36:45.464Z,32.83
2022-12-04T05:39:14.621Z,37.05
2022-12-04T05:41:42.633Z,33.75
2022-12-04T05:44:10.911Z,37.67
2022-12-04T05:46:39.945Z,35.90
2022-12-04T05:49:08.795Z,34.17
2022-12-04T05:51:38.978Z,37.92
2022-12-04T05:56:38.503Z,38.15
2022-12-04T05:59:07.647Z,41.00
2022-12-04T06:01:36.505Z,40.88
2022-12-04T06:04:05.700Z,39.50
2022-12-04T06:06:34.163Z,37.17
2022-12-04T06:09:04.703Z,38.17
2022-12-04T06:11:34.564Z,38.87
2022-12-04T06:14:05.848Z,37.53
2022-12-04T06:16:37.048Z,34.90
2022-12-04T06:19:07.569Z,36.33
2022-12-04T06:21:38.745Z,36.30
2022-12-04T06:24:14.862Z,35.65
2022-12-04T06:27:04.023Z,35.55
2022-12-04T06:29:32.047Z,37.67
2022-12-04T06:32:03.360Z,36.92
2022-12-04T06:34:32.578Z,35.67
2022-12-04T06:37:00.786Z,34.95
2022-12-04T06:39:30.658Z,36.15
2022-12-04T06:41:58.810Z,34.42
2022-12-04T06:44:27.185Z,33.95
2022-12-04T06:46:55.451Z,33.17
2022-12-04T06:49:25.554Z,33.22
2022-12-04T06:51:53.607Z,33.33
2022-12-04T06:54:21.933Z,34.03
2022-12-04T06:56:51.432Z,35.55
2022-12-04T06:59:19.941Z,32.95
2022-12-04T07:01:48.305Z,32.97
2022-12-04T07:04:16.714Z,32.03
2022-12-04T07:06:44.770Z,32.05
2022-12-04T07:09:15.334Z,31.20
2022-12-04T07:11:44.055Z,34.47
2022-12-04T07:14:14.677Z,33.22
2022-12-04T07:16:43.607Z,29.07
2022-12-04T07:19:13.771Z,31.52
2022-12-04T07:21:42.726Z,33.92
2022-12-04T07:24:15.644Z,37.08
2022-12-04T07:26:44.044Z,41.70
2022-12-04T07:29:13.850Z,45.42
2022-12-04T07:31:42.050Z,38.90
2022-12-04T07:34:10.535Z,29.63
2022-12-04T07:36:40.251Z,30.25
2022-12-04T07:39:08.743Z,29.27
2022-12-04T07:41:37.007Z,30.80
2022-12-04T07:44:05.902Z,28.98
2022-12-04T07:46:38.096Z,29.83
2022-12-04T07:49:06.469Z,32.17
2022-12-04T07:51:34.531Z,32.45
2022-12-04T07:54:04.344Z,34.70
2022-12-04T07:56:32.832Z,32.90
2022-12-04T07:59:01.230Z,45.70
2022-12-04T08:01:29.877Z,40.72
2022-12-04T08:04:01.119Z,40.40
2022-12-04T08:06:31.009Z,44.38
2022-12-04T08:09:01.525Z,38.90
2022-12-04T08:11:33.340Z,42.72
2022-12-04T08:14:03.777Z,36.47
2022-12-04T08:16:33.724Z,37.73
2022-12-04T08:19:03.591Z,36.92
2022-12-04T08:21:32.485Z,42.20
2022-12-04T08:24:01.721Z,35.92
2022-12-04T08:26:31.245Z,34.17
2022-12-04T08:29:01.374Z,35.78
2022-12-04T08:31:31.081Z,36.63
2022-12-04T08:34:00.208Z,36.17
2022-12-04T08:36:30.372Z,31.13
2022-12-04T08:38:59.375Z,31.38
2022-12-04T08:41:28.208Z,34.95
2022-12-04T08:43:58.032Z,33.75
2022-12-04T08:46:27.691Z,32.30
2022-12-04T08:48:56.620Z,34.88
2022-12-04T08:51:26.298Z,31.40
2022-12-04T08:53:57.230Z,31.52
2022-12-04T08:56:25.929Z,28.52
2022-12-04T08:58:54.552Z,32.20
2022-12-04T09:01:22.631Z,29.92
2022-12-04T09:03:51.064Z,30.45
2022-12-04T09:06:19.622Z,30.02
2022-12-04T09:08:48.076Z,38.28
2022-12-04T09:11:18.973Z,29.85
2022-12-04T09:16:17.624Z,23.48
2022-12-04T09:18:46.349Z,26.45
2022-12-04T09:21:16.056Z,26.10
2022-12-04T09:23:46.055Z,26.95
2022-12-04T09:26:21.816Z,24.95
2022-12-04T09:28:50.862Z,25.80
2022-12-04T09:31:19.895Z,25.55
2022-12-04T09:33:48.553Z,25.77
2022-12-04T09:36:17.131Z,24.73
2022-12-04T09:38:46.286Z,25.60
2022-12-04T09:41:25.131Z,28.05
2022-12-04T09:43:58.020Z,24.08
2022-12-04T09:46:28.808Z,27.60
2022-12-04T09:48:59.913Z,27.33
2022-12-04T09:51:29.067Z,24.75
2022-12-04T09:54:01.090Z,26.98
2022-12-04T09:56:31.607Z,30.10
2022-12-04T09:59:04.774Z,27.58
2022-12-04T10:01:37.223Z,29.55
2022-12-04T10:04:06.780Z,28.48
2022-12-04T10:06:40.797Z,23.90
2022-12-04T10:09:14.162Z,28.33
2022-12-04T10:11:51.678Z,28.75
2022-12-04T10:14:29.602Z,22.17
2022-12-04T10:17:19.590Z,24.13
2022-12-04T10:19:52.395Z,26.42
2022-12-04T10:22:25.023Z,26.23
2022-12-04T10:24:54.634Z,27.67
2022-12-04T10:27:27.479Z,25.98
2022-12-04T10:30:00.193Z,29.15
2022-12-04T10:32:33.087Z,25.20
2022-12-04T10:35:15.803Z,28.75
2022-12-04T10:37:45.234Z,29.33
2022-12-04T10:40:18.702Z,26.65
2022-12-04T10:42:52.978Z,31.13
2022-12-04T10:45:22.732Z,23.63
2022-12-04T10:47:51.904Z,27.02
2022-12-04T10:50:22.425Z,27.17
2022-12-04T10:52:50.614Z,28.63
2022-12-04T10:55:29.323Z,28.80
2022-12-04T10:57:58.839Z,31.13
2022-12-04T11:00:30.683Z,25.05
2022-12-04T11:03:01.190Z,23.60
2022-12-04T11:05:32.447Z,25.95
2022-12-04T11:08:02.525Z,24.23
2022-12-04T11:10:35.494Z,25.30
2022-12-04T11:13:08.094Z,26.15
2022-12-04T11:15:37.665Z,25.85
2022-12-04T11:18:09.886Z,24.77
2022-12-04T11:20:40.741Z,28.15
2022-12-04T11:23:16.409Z,24.63
2022-12-04T11:25:49.123Z,21.95
2022-12-04T11:28:40.740Z,24.98
2022-12-04T11:31:10.870Z,23.88
2022-12-04T11:33:40.458Z,22.33
2022-12-04T11:36:21.134Z,24.58
2022-12-04T11:38:49.909Z,29.27
2022-12-04T11:41:26.596Z,20.63
2022-12-04T11:44:00.022Z,24.35
2022-12-04T11:46:31.721Z,21.45
2022-12-04T11:49:00.289Z,20.52
2022-12-04T11:51:38.287Z,22.60
2022-12-04T11:54:12.814Z,24.48
2022-12-04T11:56:44.312Z,27.23
2022-12-04T11:59:34.633Z,26.35
2022-12-04T12:02:11.610Z,27.73
2022-12-04T12:04:54.787Z,23.02
2022-12-04T12:07:32.694Z,22.67
2022-12-04T12:10:05.157Z,25.35
2022-12-04T12:12:43.393Z,24.20
2022-12-04T12:15:20.970Z,26.58
2022-12-04T12:17:53.155Z,25.55
2022-12-04T12:20:23.720Z,26.67
2022-12-04T12:23:14.012Z,24.60
2022-12-04T12:25:52.063Z,27.15
2022-12-04T12:28:36.124Z,34.33
2022-12-04T12:31:16.082Z,30.30
2022-12-04T12:33:47.571Z,24.85
2022-12-04T12:36:17.593Z,31.45
2022-12-04T12:38:49.988Z,47.45
2022-12-04T12:41:20.426Z,24.13
2022-12-04T12:43:54.370Z,26.25
2022-12-04T12:46:27.698Z,25.67
2022-12-04T12:49:01.754Z,27.40
2022-12-04T12:51:35.188Z,28.33
2022-12-04T12:54:12.988Z,30.48
2022-12-04T12:56:49.159Z,29.30
2022-12-04T12:59:21.146Z,26.73
2022-12-04T13:01:58.697Z,43.63
2022-12-04T13:04:33.721Z,30.40
2022-12-04T13:07:09.529Z,34.92
2022-12-04T13:09:39.143Z,32.00
2022-12-04T13:12:12.773Z,26.67
2022-12-04T13:14:44.678Z,28.13
2022-12-04T13:17:30.419Z,31.95
2022-12-04T13:19:59.484Z,29.73
2022-12-04T13:22:33.562Z,30.85
2022-12-04T13:25:10.059Z,27.10
2022-12-04T13:27:47.977Z,29.17
2022-12-04T13:30:19.087Z,27.55
2022-12-04T13:33:09.749Z,28.45
2022-12-04T13:35:53.879Z,44.53
2022-12-04T13:38:29.644Z,28.75
2022-12-04T13:40:59.904Z,31.90
2022-12-04T13:43:36.732Z,30.20
2022-12-04T13:46:08.259Z,30.15
2022-12-04T13:53:40.501Z,29.20
2022-12-04T13:56:14.878Z,26.95
2022-12-04T13:58:43.945Z,28.52
2022-12-04T14:01:25.813Z,29.70
2022-12-04T14:03:57.609Z,29.98
2022-12-04T14:06:27.921Z,29.90
2022-12-04T14:08:58.374Z,29.27
2022-12-04T14:11:27.687Z,32.22
2022-12-04T14:13:57.276Z,33.70
2022-12-04T14:16:27.203Z,37.83
2022-12-04T14:18:58.195Z,34.75
2022-12-04T14:21:26.656Z,35.35
2022-12-04T14:23:54.842Z,34.45
2022-12-04T14:26:37.450Z,35.10
2022-12-04T14:29:31.537Z,35.92
2022-12-04T14:32:02.135Z,42.42
2022-12-04T14:34:32.642Z,38.15
2022-12-04T14:37:02.207Z,41.03
2022-12-04T14:39:31.437Z,40.03
2022-12-04T14:42:07.722Z,36.70
2022-12-04T14:44:35.822Z,45.17
2022-12-04T14:47:14.983Z,45.85
2022-12-04T14:49:51.535Z,36.13
2022-12-04T14:52:26.581Z,36.95
2022-12-04T14:55:02.978Z,46.00
2022-12-04T14:57:41.546Z,49.15
2022-12-04T15:00:16.480Z,40.47
2022-12-04T15:02:46.093Z,42.42
2022-12-04T15:05:20.825Z,40.67
2022-12-04T15:07:51.528Z,43.95
2022-12-04T15:10:40.249Z,42.42
2022-12-04T15:13:09.471Z,40.50
2022-12-04T15:15:38.096Z,43.95
2022-12-04T15:18:14.043Z,93.47
2022-12-04T15:20:56.088Z,44.50
2022-12-04T15:23:29.389Z,43.10
2022-12-04T15:25:59.048Z,44.70
2022-12-04T15:28:29.349Z,37.85
2022-12-04T15:30:58.807Z,41.33
2022-12-04T15:33:28.551Z,40.15
2022-12-04T15:36:00.500Z,43.75
2022-12-04T15:38:29.197Z,45.13
2022-12-04T15:40:58.999Z,38.67
2022-12-04T15:43:29.850Z,38.90
2022-12-04T15:45:58.624Z,37.28
2022-12-04T15:48:28.735Z,40.97
2022-12-04T15:51:00.383Z,41.83
2022-12-04T15:53:31.105Z,46.75
2022-12-04T15:56:01.483Z,40.22
2022-12-04T15:58:31.140Z,38.35
2022-12-04T16:01:00.913Z,46.15
2022-12-04T16:03:32.045Z,42.13
2022-12-04T16:06:07.157Z,40.88
2022-12-04T16:08:42.468Z,38.58
2022-12-04T16:11:25.723Z,39.63
2022-12-04T16:14:06.538Z,41.85
2022-12-04T16:16:35.555Z,35.60
2022-12-04T16:19:08.471Z,38.25
2022-12-04T16:21:38.346Z,46.42
2022-12-04T16:24:08.972Z,40.15
2022-12-04T16:26:37.260Z,45.60
2022-12-04T16:29:05.715Z,50.83
2022-12-04T16:31:34.237Z,45.03
2022-12-04T16:34:02.462Z,47.75
2022-12-04T16:36:30.904Z,44.47
2022-12-04T16:39:00.894Z,37.25
2022-12-04T16:41:29.374Z,38.72
2022-12-04T16:43:59.849Z,35.47
2022-12-04T16:46:30.695Z,41.97
2022-12-04T16:49:04.277Z,40.45
2022-12-04T16:51:37.460Z,45.55
2022-12-04T16:54:07.024Z,52.25
2022-12-04T16:56:35.493Z,52.70
2022-12-04T16:59:07.702Z,48.60
2022-12-04T17:01:42.634Z,48.17
2022-12-04T17:04:11.076Z,43.10
2022-12-04T17:06:39.563Z,39.22
2022-12-04T17:09:10.023Z,40.10
2022-12-04T17:11:38.788Z,31.23
2022-12-04T17:14:08.097Z,38.10
2022-12-04T17:16:36.736Z,47.08
2022-12-04T17:19:05.665Z,38.40
2022-12-04T17:21:34.308Z,39.88
2022-12-04T17:24:03.267Z,45.20
2022-12-04T17:26:33.287Z,45.83
2022-12-04T17:29:01.391Z,46.63
2022-12-04T17:31:29.992Z,45.95
2022-12-04T17:33:58.692Z,38.58
2022-12-04T17:36:27.963Z,40.67
2022-12-04T17:38:57.084Z,52.55
2022-12-04T17:41:25.631Z,42.83
2022-12-04T17:43:55.282Z,41.25
2022-12-04T17:46:24.708Z,39.75
2022-12-04T17:48:53.196Z,44.38
2022-12-04T17:51:23.193Z,44.90
2022-12-04T17:53:52.069Z,41.80
2022-12-04T17:56:21.978Z,44.78
2022-12-04T17:58:50.306Z,42.50
2022-12-04T18:01:22.333Z,41.42
2022-12-04T18:03:51.292Z,47.30
2022-12-04T18:06:21.943Z,41.10
2022-12-04T18:08:50.714Z,38.67
2022-12-04T18:11:20.950Z,41.40
2022-12-04T18:13:49.401Z,38.83
2022-12-04T18:16:17.954Z,41.28
2022-12-04T18:18:47.910Z,40.60
2022-12-04T18:21:16.623Z,37.17
2022-12-04T18:23:46.035Z,36.80
2022-12-04T18:26:16.359Z,37.72
2022-12-04T18:28:45.030Z,35.30
2022-12-04T18:31:14.090Z,35.25
2022-12-04T18:33:43.239Z,36.38
2022-12-04T18:36:16.340Z,35.45
2022-12-04T18:38:44.862Z,35.58
2022-12-04T18:41:14.724Z,37.30
2022-12-04T18:43:45.273Z,37.17
2022-12-04T18:46:16.376Z,32.28
2022-12-04T18:48:45.946Z,37.05
2022-12-04T18:51:17.765Z,36.20
2022-12-04T18:53:45.977Z,34.10
2022-12-04T18:56:14.704Z,35.53
2022-12-04T18:58:42.975Z,36.35
2022-12-04T19:01:12.594Z,38.55
2022-12-04T19:03:41.361Z,39.85
2022-12-04T19:06:09.989Z,36.53
2022-12-04T19:08:43.029Z,39.30
2022-12-04T19:11:15.189Z,37.28
2022-12-04T19:16:12.742Z,35.17
2022-12-04T19:18:42.328Z,43.38
2022-12-04T19:21:10.817Z,41.10
2022-12-04T19:23:40.745Z,41.63
2022-12-04T19:26:09.522Z,39.47
2022-12-04T19:28:38.182Z,41.85
2022-12-04T19:31:06.645Z,36.35
2022-12-04T19:33:34.793Z,42.88
2022-12-04T19:36:05.460Z,40.90
2022-12-04T19:38:34.174Z,44.53
2022-12-04T19:41:06.480Z,45.25
2022-12-04T19:43:34.673Z,40.45
2022-12-04T19:46:03.178Z,43.95
2022-12-04T19:48:31.351Z,42.45
2022-12-04T19:51:04.091Z,42.15
2022-12-04T19:53:36.256Z,42.10
2022-12-04T19:56:11.247Z,44.15
2022-12-04T19:58:39.499Z,37.63
2022-12-04T20:01:09.770Z,41.25
2022-12-04T20:03:38.053Z,38.30
2022-12-04T20:06:07.980Z,36.58
2022-12-04T20:08:36.447Z,35.55
2022-12-04T20:11:05.672Z,35.10
2022-12-04T20:13:37.301Z,35.42
2022-12-04T20:16:06.990Z,35.22
2022-12-04T20:18:35.884Z,33.25
2022-12-04T20:21:05.069Z,33.42
2022-12-04T20:23:33.166Z,34.83
2022-12-04T20:26:05.262Z,35.97
2022-12-04T20:28:33.604Z,34.20
2022-12-04T20:31:12.400Z,33.55
2022-12-04T20:33:41.303Z,36.38
2022-12-04T20:36:10.423Z,33.88
2022-12-04T20:38:39.120Z,36.03
2022-12-04T20:41:09.205Z,33.72
2022-12-04T20:43:38.146Z,35.80
2022-12-04T20:46:16.539Z,38.53
2022-12-04T20:48:48.335Z,33.25
2022-12-04T20:51:17.431Z,37.42
2022-12-04T20:53:45.866Z,36.85
2022-12-04T20:56:14.584Z,36.25
2022-12-04T20:58:42.834Z,29.60
2022-12-04T21:01:13.126Z,29.40
2022-12-04T21:03:43.204Z,31.85
2022-12-04T21:06:13.978Z,37.95
2022-12-04T21:08:54.468Z,33.97
2022-12-04T21:11:23.158Z,33.30
2022-12-04T21:14:08.634Z,31.40
2022-12-04T21:16:37.264Z,32.53
2022-12-04T21:19:09.552Z,31.90
2022-12-04T21:21:38.376Z,33.78
2022-12-04T21:24:08.649Z,33.22
2022-12-04T21:26:37.107Z,33.95
2022-12-04T21:29:06.481Z,31.70
2022-12-04T21:31:35.374Z,33.47
2022-12-04T21:34:08.003Z,30.33
2022-12-04T21:36:36.382Z,35.22
2022-12-04T21:39:05.177Z,34.10
2022-12-04T21:41:51.199Z,36.30
2022-12-04T21:44:21.143Z,33.03
2022-12-04T21:46:50.106Z,32.53
2022-12-04T21:49:20.331Z,31.67
2022-12-04T21:51:57.313Z,29.83
2022-12-04T21:54:26.872Z,29.20
2022-12-04T21:56:55.703Z,29.67
2022-12-04T21:59:23.831Z,30.67
2022-12-04T22:01:52.493Z,29.17
2022-12-04T22:04:22.375Z,29.10
2022-12-04T22:06:54.063Z,29.38
2022-12-04T22:11:50.363Z,28.67
2022-12-04T22:14:18.466Z,28.75
2022-12-04T22:16:47.051Z,27.95
2022-12-04T22:19:15.622Z,30.20
2022-12-04T22:21:45.290Z,29.20
2022-12-04T22:24:14.684Z,29.60
2022-12-04T22:26:42.981Z,30.30
2022-12-04T22:29:41.943Z,29.88
2022-12-04T22:31:59.514Z,28.15
2022-12-04T22:34:27.527Z,25.85
2022-12-04T22:36:57.269Z,26.48
2022-12-04T22:39:25.427Z,25.45
2022-12-04T22:41:53.823Z,26.70
2022-12-04T22:44:22.003Z,26.48
2022-12-04T22:46:50.451Z,25.25
2022-12-04T22:49:18.591Z,25.30
2022-12-04T22:51:46.910Z,24.55
2022-12-04T22:54:18.304Z,26.67
2022-12-04T22:56:46.825Z,26.38
2022-12-04T22:59:15.170Z,29.05
2022-12-04T23:01:43.542Z,29.63
2022-12-04T23:04:14.945Z,28.27
2022-12-04T23:06:43.279Z,27.48
2022-12-04T23:09:14.633Z,29.38
2022-12-04T23:11:45.336Z,27.95
2022-12-04T23:14:15.794Z,29.92
2022-12-04T23:16:44.787Z,28.25
2022-12-04T23:19:15.669Z,29.17
2022-12-04T23:21:44.548Z,30.95
2022-12-04T23:24:12.911Z,31.83
2022-12-04T23:26:42.885Z,33.30
2022-12-04T23:32:04.855Z,31.40
2022-12-04T23:34:33.326Z,33.08
2022-12-04T23:37:02.104Z,33.78
2022-12-04T23:39:30.568Z,35.53
2022-12-04T23:41:59.021Z,34.78
2022-12-04T23:44:28.658Z,34.05
2022-12-04T23:46:57.170Z,34.50
2022-12-04T23:49:25.237Z,32.58
2022-12-04T23:51:53.512Z,33.22
2022-12-04T23:54:21.613Z,35.65
2022-12-04T23:56:49.949Z,33.28
2022-12-04T23:59:18.008Z,30.55
